sensor_id;sensor_type;location;lat;lon;timestamp;P1;durP1;ratioP1;P2;durP2;ratioP2
7541;SDS011;3812;50.006;8.230;2022-12-29T00:01:27;4.30;;;2.07;;
7541;SDS011;3812;50.006;8.230;2022-12-29T00:03:54;3.23;;;2.10;;
7541;SDS011;3812;50.006;8.230;2022-12-29T00:06:22;3.23;;;2.23;;
7541;SDS011;3812;50.006;8.230;2022-12-29T00:08:49;2.50;;;2.10;;
7541;SDS011;3812;50.006;8.230;2022-12-29T00:11:16;4.00;;;2.10;;
7541;SDS011;3812;50.006;8.230;2022-12-29T00:13:45;3.03;;;1.80;;
7541;SDS011;3812;50.006;8.230;2022-12-29T00:16:30;5.20;;;2.37;;
7541;SDS011;3812;50.006;8.230;2022-12-29T00:18:57;3.10;;;2.03;;
7541;SDS011;3812;50.006;8.230;2022-12-29T00:21:25;4.00;;;2.30;;
7541;SDS011;3812;50.006;8.230;2022-12-29T00:24:12;3.30;;;2.53;;
7541;SDS011;3812;50.006;8.230;2022-12-29T00:26:58;3.83;;;1.97;;
7541;SDS011;3812;50.006;8.230;2022-12-29T00:29:56;4.47;;;2.17;;
7541;SDS011;3812;50.006;8.230;2022-12-29T00:32:40;3.60;;;2.23;;
7541;SDS011;3812;50.006;8.230;2022-12-29T00:35:26;2.57;;;2.07;;
7541;SDS011;3812;50.006;8.230;2022-12-29T00:37:57;2.20;;;1.90;;
7541;SDS011;3812;50.006;8.230;2022-12-29T00:40:41;3.83;;;2.10;;
7541;SDS011;3812;50.006;8.230;2022-12-29T00:43:25;3.20;;;2.00;;
7541;SDS011;3812;50.006;8.230;2022-12-29T00:46:10;4.27;;;2.43;;
7541;SDS011;3812;50.006;8.230;2022-12-29T00:48:37;3.70;;;2.13;;
7541;SDS011;3812;50.006;8.230;2022-12-29T00:51:21;3.87;;;2.37;;
7541;SDS011;3812;50.006;8.230;2022-12-29T00:53:50;4.77;;;2.70;;
7541;SDS011;3812;50.006;8.230;2022-12-29T00:56:17;3.07;;;2.10;;
7541;SDS011;3812;50.006;8.230;2022-12-29T00:58:44;2.43;;;2.10;;
7541;SDS011;3812;50.006;8.230;2022-12-29T01:01:11;3.77;;;2.20;;
7541;SDS011;3812;50.006;8.230;2022-12-29T01:03:38;3.30;;;2.10;;
7541;SDS011;3812;50.006;8.230;2022-12-29T01:06:06;3.40;;;2.20;;
7541;SDS011;3812;50.006;8.230;2022-12-29T01:08:36;3.97;;;2.33;;
7541;SDS011;3812;50.006;8.230;2022-12-29T01:11:06;2.47;;;2.00;;
7541;SDS011;3812;50.006;8.230;2022-12-29T01:13:33;5.73;;;2.40;;
7541;SDS011;3812;50.006;8.230;2022-12-29T01:16:03;2.50;;;2.20;;
7541;SDS011;3812;50.006;8.230;2022-12-29T01:18:31;5.33;;;2.07;;
7541;SDS011;3812;50.006;8.230;2022-12-29T01:20:59;3.40;;;2.20;;
7541;SDS011;3812;50.006;8.230;2022-12-29T01:23:26;3.30;;;2.27;;
7541;SDS011;3812;50.006;8.230;2022-12-29T01:25:54;3.43;;;2.40;;
7541;SDS011;3812;50.006;8.230;2022-12-29T01:28:24;4.07;;;2.27;;
7541;SDS011;3812;50.006;8.230;2022-12-29T01:30:51;5.30;;;2.10;;
7541;SDS011;3812;50.006;8.230;2022-12-29T01:33:18;3.40;;;2.37;;
7541;SDS011;3812;50.006;8.230;2022-12-29T01:35:45;3.20;;;2.40;;
7541;SDS011;3812;50.006;8.230;2022-12-29T01:38:11;3.13;;;1.80;;
7541;SDS011;3812;50.006;8.230;2022-12-29T01:40:45;4.83;;;2.13;;
7541;SDS011;3812;50.006;8.230;2022-12-29T01:43:13;3.67;;;2.30;;
7541;SDS011;3812;50.006;8.230;2022-12-29T01:45:44;3.30;;;1.90;;
7541;SDS011;3812;50.006;8.230;2022-12-29T01:48:14;2.03;;;1.87;;
7541;SDS011;3812;50.006;8.230;2022-12-29T01:50:45;4.27;;;2.23;;
7541;SDS011;3812;50.006;8.230;2022-12-29T01:53:18;2.30;;;2.10;;
7541;SDS011;3812;50.006;8.230;2022-12-29T01:55:50;2.07;;;1.87;;
7541;SDS011;3812;50.006;8.230;2022-12-29T01:58:21;3.60;;;1.90;;
7541;SDS011;3812;50.006;8.230;2022-12-29T02:00:51;2.90;;;2.20;;
7541;SDS011;3812;50.006;8.230;2022-12-29T02:03:18;3.00;;;1.90;;
7541;SDS011;3812;50.006;8.230;2022-12-29T02:05:48;2.60;;;2.13;;
7541;SDS011;3812;50.006;8.230;2022-12-29T02:08:19;4.47;;;2.73;;
7541;SDS011;3812;50.006;8.230;2022-12-29T02:10:48;5.03;;;2.20;;
7541;SDS011;3812;50.006;8.230;2022-12-29T02:13:15;5.33;;;2.00;;
7541;SDS011;3812;50.006;8.230;2022-12-29T02:15:47;6.23;;;2.30;;
7541;SDS011;3812;50.006;8.230;2022-12-29T02:18:25;3.40;;;2.27;;
7541;SDS011;3812;50.006;8.230;2022-12-29T02:26:58;2.10;;;1.90;;
7541;SDS011;3812;50.006;8.230;2022-12-29T02:30:01;3.37;;;2.03;;
7541;SDS011;3812;50.006;8.230;2022-12-29T02:32:38;2.43;;;1.97;;
7541;SDS011;3812;50.006;8.230;2022-12-29T02:35:14;3.53;;;2.20;;
7541;SDS011;3812;50.006;8.230;2022-12-29T02:37:51;4.13;;;2.00;;
7541;SDS011;3812;50.006;8.230;2022-12-29T02:40:28;2.23;;;1.90;;
7541;SDS011;3812;50.006;8.230;2022-12-29T02:43:04;1.93;;;1.60;;
7541;SDS011;3812;50.006;8.230;2022-12-29T02:45:39;2.43;;;2.23;;
7541;SDS011;3812;50.006;8.230;2022-12-29T02:48:15;2.03;;;1.70;;
7541;SDS011;3812;50.006;8.230;2022-12-29T02:50:47;2.20;;;1.43;;
7541;SDS011;3812;50.006;8.230;2022-12-29T02:53:21;1.63;;;1.53;;
7541;SDS011;3812;50.006;8.230;2022-12-29T02:56:05;2.83;;;1.73;;
7541;SDS011;3812;50.006;8.230;2022-12-29T02:58:32;2.03;;;1.60;;
7541;SDS011;3812;50.006;8.230;2022-12-29T03:01:03;2.20;;;1.50;;
7541;SDS011;3812;50.006;8.230;2022-12-29T03:03:47;3.13;;;2.00;;
7541;SDS011;3812;50.006;8.230;2022-12-29T03:06:30;3.10;;;2.13;;
7541;SDS011;3812;50.006;8.230;2022-12-29T03:09:11;1.60;;;1.50;;
7541;SDS011;3812;50.006;8.230;2022-12-29T03:11:48;1.67;;;1.50;;
7541;SDS011;3812;50.006;8.230;2022-12-29T03:14:39;2.53;;;1.67;;
7541;SDS011;3812;50.006;8.230;2022-12-29T03:17:35;1.73;;;1.63;;
7541;SDS011;3812;50.006;8.230;2022-12-29T03:20:08;4.27;;;2.00;;
7541;SDS011;3812;50.006;8.230;2022-12-29T03:22:39;1.53;;;1.40;;
7541;SDS011;3812;50.006;8.230;2022-12-29T03:25:13;1.93;;;1.73;;
7541;SDS011;3812;50.006;8.230;2022-12-29T03:27:45;2.70;;;1.83;;
7541;SDS011;3812;50.006;8.230;2022-12-29T03:30:16;2.63;;;1.60;;
7541;SDS011;3812;50.006;8.230;2022-12-29T03:32:44;2.20;;;1.80;;
7541;SDS011;3812;50.006;8.230;2022-12-29T03:35:17;2.57;;;1.77;;
7541;SDS011;3812;50.006;8.230;2022-12-29T03:37:49;2.17;;;1.93;;
7541;SDS011;3812;50.006;8.230;2022-12-29T03:40:19;2.27;;;1.70;;
7541;SDS011;3812;50.006;8.230;2022-12-29T03:42:49;2.47;;;1.67;;
7541;SDS011;3812;50.006;8.230;2022-12-29T03:45:16;2.73;;;1.90;;
7541;SDS011;3812;50.006;8.230;2022-12-29T03:47:43;1.90;;;1.63;;
7541;SDS011;3812;50.006;8.230;2022-12-29T03:50:11;3.40;;;1.60;;
7541;SDS011;3812;50.006;8.230;2022-12-29T03:52:41;2.07;;;1.83;;
7541;SDS011;3812;50.006;8.230;2022-12-29T03:55:09;2.40;;;1.80;;
7541;SDS011;3812;50.006;8.230;2022-12-29T03:57:37;3.57;;;1.80;;
7541;SDS011;3812;50.006;8.230;2022-12-29T04:00:08;2.47;;;1.73;;
7541;SDS011;3812;50.006;8.230;2022-12-29T04:02:44;4.23;;;1.90;;
7541;SDS011;3812;50.006;8.230;2022-12-29T04:05:16;2.80;;;1.80;;
7541;SDS011;3812;50.006;8.230;2022-12-29T04:07:45;2.60;;;1.70;;
7541;SDS011;3812;50.006;8.230;2022-12-29T04:10:12;3.43;;;1.80;;
7541;SDS011;3812;50.006;8.230;2022-12-29T04:12:40;1.93;;;1.60;;
7541;SDS011;3812;50.006;8.230;2022-12-29T04:15:08;2.77;;;1.77;;
7541;SDS011;3812;50.006;8.230;2022-12-29T04:17:35;2.30;;;1.70;;
7541;SDS011;3812;50.006;8.230;2022-12-29T04:20:03;2.87;;;1.70;;
7541;SDS011;3812;50.006;8.230;2022-12-29T04:22:53;2.97;;;1.90;;
7541;SDS011;3812;50.006;8.230;2022-12-29T04:25:25;5.10;;;1.87;;
7541;SDS011;3812;50.006;8.230;2022-12-29T04:27:52;2.20;;;1.50;;
7541;SDS011;3812;50.006;8.230;2022-12-29T04:30:39;1.93;;;1.60;;
7541;SDS011;3812;50.006;8.230;2022-12-29T04:33:21;3.23;;;2.23;;
7541;SDS011;3812;50.006;8.230;2022-12-29T04:35:49;2.10;;;1.90;;
7541;SDS011;3812;50.006;8.230;2022-12-29T04:38:20;3.67;;;1.80;;
7541;SDS011;3812;50.006;8.230;2022-12-29T04:40:48;3.20;;;1.77;;
7541;SDS011;3812;50.006;8.230;2022-12-29T04:43:17;2.17;;;1.50;;
7541;SDS011;3812;50.006;8.230;2022-12-29T04:46:03;2.10;;;1.63;;
7541;SDS011;3812;50.006;8.230;2022-12-29T04:48:38;3.80;;;1.90;;
7541;SDS011;3812;50.006;8.230;2022-12-29T04:51:25;1.90;;;1.57;;
7541;SDS011;3812;50.006;8.230;2022-12-29T04:53:53;3.50;;;1.80;;
7541;SDS011;3812;50.006;8.230;2022-12-29T04:56:22;2.73;;;1.70;;
7541;SDS011;3812;50.006;8.230;2022-12-29T04:58:49;1.93;;;1.73;;
7541;SDS011;3812;50.006;8.230;2022-12-29T05:01:16;1.97;;;1.67;;
7541;SDS011;3812;50.006;8.230;2022-12-29T05:03:43;2.17;;;1.70;;
7541;SDS011;3812;50.006;8.230;2022-12-29T05:06:09;4.80;;;1.63;;
7541;SDS011;3812;50.006;8.230;2022-12-29T05:08:36;2.83;;;1.80;;
7541;SDS011;3812;50.006;8.230;2022-12-29T05:11:05;3.70;;;2.00;;
7541;SDS011;3812;50.006;8.230;2022-12-29T05:13:32;2.67;;;2.00;;
7541;SDS011;3812;50.006;8.230;2022-12-29T05:16:00;2.77;;;1.67;;
7541;SDS011;3812;50.006;8.230;2022-12-29T05:18:28;1.83;;;1.73;;
7541;SDS011;3812;50.006;8.230;2022-12-29T05:20:57;3.13;;;2.00;;
7541;SDS011;3812;50.006;8.230;2022-12-29T05:23:24;1.83;;;1.47;;
7541;SDS011;3812;50.006;8.230;2022-12-29T05:25:56;2.97;;;1.70;;
7541;SDS011;3812;50.006;8.230;2022-12-29T05:28:45;2.50;;;2.00;;
7541;SDS011;3812;50.006;8.230;2022-12-29T05:31:17;2.60;;;1.70;;
7541;SDS011;3812;50.006;8.230;2022-12-29T05:33:43;1.90;;;1.70;;
7541;SDS011;3812;50.006;8.230;2022-12-29T05:36:11;2.73;;;1.73;;
7541;SDS011;3812;50.006;8.230;2022-12-29T05:38:43;4.27;;;1.90;;
7541;SDS011;3812;50.006;8.230;2022-12-29T05:41:09;3.97;;;1.83;;
7541;SDS011;3812;50.006;8.230;2022-12-29T05:43:47;4.30;;;1.93;;
7541;SDS011;3812;50.006;8.230;2022-12-29T05:46:32;3.03;;;1.73;;
7541;SDS011;3812;50.006;8.230;2022-12-29T05:49:18;2.67;;;1.77;;
7541;SDS011;3812;50.006;8.230;2022-12-29T05:52:04;3.77;;;1.70;;
7541;SDS011;3812;50.006;8.230;2022-12-29T05:54:32;2.80;;;1.80;;
7541;SDS011;3812;50.006;8.230;2022-12-29T05:57:00;2.10;;;1.90;;
7541;SDS011;3812;50.006;8.230;2022-12-29T05:59:30;2.83;;;1.70;;
7541;SDS011;3812;50.006;8.230;2022-12-29T06:01:57;4.20;;;1.90;;
7541;SDS011;3812;50.006;8.230;2022-12-29T06:04:24;6.30;;;1.60;;
7541;SDS011;3812;50.006;8.230;2022-12-29T06:06:51;4.13;;;1.73;;
7541;SDS011;3812;50.006;8.230;2022-12-29T06:09:24;1.77;;;1.43;;
7541;SDS011;3812;50.006;8.230;2022-12-29T06:11:52;2.67;;;1.67;;
7541;SDS011;3812;50.006;8.230;2022-12-29T06:14:19;4.63;;;1.93;;
7541;SDS011;3812;50.006;8.230;2022-12-29T06:16:48;1.97;;;1.77;;
7541;SDS011;3812;50.006;8.230;2022-12-29T06:19:16;2.47;;;1.40;;
7541;SDS011;3812;50.006;8.230;2022-12-29T06:21:43;2.73;;;1.70;;
7541;SDS011;3812;50.006;8.230;2022-12-29T06:24:10;1.63;;;1.40;;
7541;SDS011;3812;50.006;8.230;2022-12-29T06:26:38;1.87;;;1.67;;
7541;SDS011;3812;50.006;8.230;2022-12-29T06:29:05;2.30;;;1.60;;
7541;SDS011;3812;50.006;8.230;2022-12-29T06:31:33;4.17;;;1.90;;
7541;SDS011;3812;50.006;8.230;2022-12-29T06:34:02;2.23;;;1.70;;
7541;SDS011;3812;50.006;8.230;2022-12-29T06:36:29;1.50;;;1.40;;
7541;SDS011;3812;50.006;8.230;2022-12-29T06:38:56;2.90;;;1.73;;
7541;SDS011;3812;50.006;8.230;2022-12-29T06:41:22;3.27;;;1.57;;
7541;SDS011;3812;50.006;8.230;2022-12-29T06:44:22;3.27;;;1.80;;
7541;SDS011;3812;50.006;8.230;2022-12-29T06:46:54;9.43;;;1.83;;
7541;SDS011;3812;50.006;8.230;2022-12-29T06:49:23;3.63;;;2.37;;
7541;SDS011;3812;50.006;8.230;2022-12-29T06:51:50;2.20;;;1.80;;
7541;SDS011;3812;50.006;8.230;2022-12-29T06:54:17;2.00;;;1.80;;
7541;SDS011;3812;50.006;8.230;2022-12-29T06:56:44;3.80;;;1.83;;
7541;SDS011;3812;50.006;8.230;2022-12-29T06:59:11;6.53;;;1.90;;
7541;SDS011;3812;50.006;8.230;2022-12-29T07:01:38;2.70;;;2.07;;
7541;SDS011;3812;50.006;8.230;2022-12-29T07:04:05;3.80;;;1.93;;
7541;SDS011;3812;50.006;8.230;2022-12-29T07:06:33;4.63;;;2.00;;
7541;SDS011;3812;50.006;8.230;2022-12-29T07:09:00;3.03;;;1.97;;
7541;SDS011;3812;50.006;8.230;2022-12-29T07:11:27;2.60;;;1.90;;
7541;SDS011;3812;50.006;8.230;2022-12-29T07:13:54;4.20;;;1.90;;
7541;SDS011;3812;50.006;8.230;2022-12-29T07:16:21;5.27;;;2.40;;
7541;SDS011;3812;50.006;8.230;2022-12-29T07:18:48;3.20;;;1.80;;
7541;SDS011;3812;50.006;8.230;2022-12-29T07:21:15;3.47;;;1.90;;
7541;SDS011;3812;50.006;8.230;2022-12-29T07:23:43;3.80;;;2.20;;
7541;SDS011;3812;50.006;8.230;2022-12-29T07:26:11;4.80;;;2.03;;
7541;SDS011;3812;50.006;8.230;2022-12-29T07:28:39;2.23;;;1.97;;
7541;SDS011;3812;50.006;8.230;2022-12-29T07:31:08;6.20;;;2.23;;
7541;SDS011;3812;50.006;8.230;2022-12-29T07:33:40;3.40;;;2.10;;
7541;SDS011;3812;50.006;8.230;2022-12-29T07:36:08;2.93;;;2.13;;
7541;SDS011;3812;50.006;8.230;2022-12-29T07:38:35;3.93;;;2.03;;
7541;SDS011;3812;50.006;8.230;2022-12-29T07:41:03;2.37;;;2.00;;
7541;SDS011;3812;50.006;8.230;2022-12-29T07:43:31;3.57;;;2.30;;
7541;SDS011;3812;50.006;8.230;2022-12-29T07:46:21;2.93;;;2.20;;
7541;SDS011;3812;50.006;8.230;2022-12-29T07:48:48;2.93;;;2.30;;
7541;SDS011;3812;50.006;8.230;2022-12-29T07:51:15;2.77;;;2.20;;
7541;SDS011;3812;50.006;8.230;2022-12-29T07:53:42;3.70;;;2.20;;
7541;SDS011;3812;50.006;8.230;2022-12-29T07:56:10;3.73;;;2.10;;
7541;SDS011;3812;50.006;8.230;2022-12-29T07:58:37;3.80;;;2.33;;
7541;SDS011;3812;50.006;8.230;2022-12-29T08:01:03;3.43;;;2.30;;
7541;SDS011;3812;50.006;8.230;2022-12-29T08:03:31;2.87;;;2.20;;
7541;SDS011;3812;50.006;8.230;2022-12-29T08:05:58;4.00;;;2.20;;
7541;SDS011;3812;50.006;8.230;2022-12-29T08:08:24;3.13;;;2.53;;
7541;SDS011;3812;50.006;8.230;2022-12-29T08:10:51;5.37;;;2.33;;
7541;SDS011;3812;50.006;8.230;2022-12-29T08:13:19;5.27;;;2.63;;
7541;SDS011;3812;50.006;8.230;2022-12-29T08:15:46;5.37;;;2.40;;
7541;SDS011;3812;50.006;8.230;2022-12-29T08:18:13;2.90;;;2.20;;
7541;SDS011;3812;50.006;8.230;2022-12-29T08:20:40;3.07;;;2.30;;
7541;SDS011;3812;50.006;8.230;2022-12-29T08:23:07;4.13;;;2.80;;
7541;SDS011;3812;50.006;8.230;2022-12-29T08:25:34;5.33;;;2.50;;
7541;SDS011;3812;50.006;8.230;2022-12-29T08:28:01;4.47;;;2.80;;
7541;SDS011;3812;50.006;8.230;2022-12-29T08:30:29;4.47;;;2.67;;
7541;SDS011;3812;50.006;8.230;2022-12-29T08:32:56;3.83;;;2.57;;
7541;SDS011;3812;50.006;8.230;2022-12-29T08:35:23;6.87;;;2.67;;
7541;SDS011;3812;50.006;8.230;2022-12-29T08:37:50;3.87;;;2.83;;
7541;SDS011;3812;50.006;8.230;2022-12-29T08:40:17;4.50;;;2.93;;
7541;SDS011;3812;50.006;8.230;2022-12-29T08:42:44;3.33;;;2.37;;
7541;SDS011;3812;50.006;8.230;2022-12-29T08:45:11;6.90;;;3.10;;
7541;SDS011;3812;50.006;8.230;2022-12-29T08:47:39;3.67;;;2.70;;
7541;SDS011;3812;50.006;8.230;2022-12-29T08:50:06;8.33;;;2.87;;
7541;SDS011;3812;50.006;8.230;2022-12-29T08:52:33;4.50;;;3.30;;
7541;SDS011;3812;50.006;8.230;2022-12-29T08:55:00;6.00;;;3.20;;
7541;SDS011;3812;50.006;8.230;2022-12-29T08:57:28;4.50;;;3.00;;
7541;SDS011;3812;50.006;8.230;2022-12-29T09:00:03;4.20;;;3.40;;
7541;SDS011;3812;50.006;8.230;2022-12-29T09:02:31;6.23;;;3.60;;
7541;SDS011;3812;50.006;8.230;2022-12-29T09:04:59;5.77;;;4.17;;
7541;SDS011;3812;50.006;8.230;2022-12-29T09:07:26;7.87;;;3.80;;
7541;SDS011;3812;50.006;8.230;2022-12-29T09:09:53;5.07;;;3.87;;
7541;SDS011;3812;50.006;8.230;2022-12-29T09:12:20;6.77;;;3.50;;
7541;SDS011;3812;50.006;8.230;2022-12-29T09:14:47;5.77;;;4.00;;
7541;SDS011;3812;50.006;8.230;2022-12-29T09:17:13;6.07;;;3.70;;
7541;SDS011;3812;50.006;8.230;2022-12-29T09:19:59;5.57;;;3.30;;
7541;SDS011;3812;50.006;8.230;2022-12-29T09:22:26;5.50;;;3.47;;
7541;SDS011;3812;50.006;8.230;2022-12-29T09:24:53;7.13;;;3.33;;
7541;SDS011;3812;50.006;8.230;2022-12-29T09:27:20;6.63;;;3.77;;
7541;SDS011;3812;50.006;8.230;2022-12-29T09:29:47;7.97;;;3.47;;
7541;SDS011;3812;50.006;8.230;2022-12-29T09:32:14;5.60;;;3.90;;
7541;SDS011;3812;50.006;8.230;2022-12-29T09:34:41;4.57;;;3.40;;
7541;SDS011;3812;50.006;8.230;2022-12-29T09:37:09;7.27;;;3.90;;
7541;SDS011;3812;50.006;8.230;2022-12-29T09:39:36;5.03;;;4.03;;
7541;SDS011;3812;50.006;8.230;2022-12-29T09:42:05;6.17;;;3.83;;
7541;SDS011;3812;50.006;8.230;2022-12-29T09:44:43;3.73;;;3.20;;
7541;SDS011;3812;50.006;8.230;2022-12-29T09:47:15;4.97;;;2.93;;
7541;SDS011;3812;50.006;8.230;2022-12-29T09:49:45;3.47;;;3.03;;
7541;SDS011;3812;50.006;8.230;2022-12-29T09:52:20;3.20;;;2.20;;
7541;SDS011;3812;50.006;8.230;2022-12-29T09:54:51;3.93;;;2.00;;
7541;SDS011;3812;50.006;8.230;2022-12-29T09:57:22;3.20;;;2.07;;
7541;SDS011;3812;50.006;8.230;2022-12-29T09:59:52;2.30;;;1.70;;
7541;SDS011;3812;50.006;8.230;2022-12-29T10:02:34;2.63;;;1.70;;
7541;SDS011;3812;50.006;8.230;2022-12-29T10:05:04;4.67;;;2.20;;
7541;SDS011;3812;50.006;8.230;2022-12-29T10:07:45;2.40;;;2.17;;
7541;SDS011;3812;50.006;8.230;2022-12-29T10:10:28;2.40;;;1.63;;
7541;SDS011;3812;50.006;8.230;2022-12-29T10:13:04;2.00;;;1.80;;
7541;SDS011;3812;50.006;8.230;2022-12-29T10:15:45;3.03;;;1.60;;
7541;SDS011;3812;50.006;8.230;2022-12-29T10:18:22;1.90;;;1.30;;
7541;SDS011;3812;50.006;8.230;2022-12-29T10:21:13;2.20;;;1.50;;
7541;SDS011;3812;50.006;8.230;2022-12-29T10:23:47;1.37;;;1.27;;
7541;SDS011;3812;50.006;8.230;2022-12-29T10:26:17;1.30;;;1.20;;
7541;SDS011;3812;50.006;8.230;2022-12-29T10:28:47;1.90;;;1.30;;
7541;SDS011;3812;50.006;8.230;2022-12-29T10:31:18;1.27;;;1.17;;
7541;SDS011;3812;50.006;8.230;2022-12-29T10:33:49;1.20;;;1.10;;
7541;SDS011;3812;50.006;8.230;2022-12-29T10:36:24;2.27;;;1.33;;
7541;SDS011;3812;50.006;8.230;2022-12-29T10:39:02;1.73;;;1.20;;
7541;SDS011;3812;50.006;8.230;2022-12-29T10:41:40;1.40;;;1.30;;
7541;SDS011;3812;50.006;8.230;2022-12-29T10:44:13;1.97;;;1.10;;
7541;SDS011;3812;50.006;8.230;2022-12-29T10:46:43;1.83;;;1.00;;
7541;SDS011;3812;50.006;8.230;2022-12-29T10:49:16;1.30;;;1.10;;
7541;SDS011;3812;50.006;8.230;2022-12-29T10:51:45;1.07;;;1.07;;
7541;SDS011;3812;50.006;8.230;2022-12-29T10:54:19;1.33;;;1.10;;
7541;SDS011;3812;50.006;8.230;2022-12-29T10:56:53;1.33;;;1.10;;
7541;SDS011;3812;50.006;8.230;2022-12-29T10:59:27;1.20;;;0.93;;
7541;SDS011;3812;50.006;8.230;2022-12-29T11:01:58;0.80;;;0.80;;
7541;SDS011;3812;50.006;8.230;2022-12-29T11:04:43;1.37;;;1.27;;
7541;SDS011;3812;50.006;8.230;2022-12-29T11:07:18;1.17;;;1.00;;
7541;SDS011;3812;50.006;8.230;2022-12-29T11:09:47;3.77;;;1.30;;
7541;SDS011;3812;50.006;8.230;2022-12-29T11:12:18;4.03;;;1.03;;
7541;SDS011;3812;50.006;8.230;2022-12-29T11:14:46;1.77;;;1.10;;
7541;SDS011;3812;50.006;8.230;2022-12-29T11:17:14;1.27;;;0.90;;
7541;SDS011;3812;50.006;8.230;2022-12-29T11:19:43;1.57;;;1.00;;
7541;SDS011;3812;50.006;8.230;2022-12-29T11:22:13;1.47;;;1.20;;
7541;SDS011;3812;50.006;8.230;2022-12-29T11:24:49;1.17;;;1.00;;
7541;SDS011;3812;50.006;8.230;2022-12-29T11:27:18;2.10;;;1.10;;
7541;SDS011;3812;50.006;8.230;2022-12-29T11:29:48;2.50;;;1.10;;
7541;SDS011;3812;50.006;8.230;2022-12-29T11:32:17;3.50;;;1.10;;
7541;SDS011;3812;50.006;8.230;2022-12-29T11:34:45;3.17;;;1.07;;
7541;SDS011;3812;50.006;8.230;2022-12-29T11:37:13;1.10;;;1.00;;
7541;SDS011;3812;50.006;8.230;2022-12-29T11:39:44;3.17;;;1.20;;
7541;SDS011;3812;50.006;8.230;2022-12-29T11:42:20;2.60;;;1.10;;
7541;SDS011;3812;50.006;8.230;2022-12-29T11:44:49;1.50;;;1.20;;
7541;SDS011;3812;50.006;8.230;2022-12-29T11:47:22;1.77;;;1.10;;
7541;SDS011;3812;50.006;8.230;2022-12-29T11:49:53;1.60;;;1.10;;
7541;SDS011;3812;50.006;8.230;2022-12-29T11:52:23;1.57;;;1.20;;
7541;SDS011;3812;50.006;8.230;2022-12-29T11:54:52;2.13;;;1.20;;
7541;SDS011;3812;50.006;8.230;2022-12-29T11:57:22;2.40;;;1.13;;
7541;SDS011;3812;50.006;8.230;2022-12-29T11:59:51;3.73;;;1.40;;
7541;SDS011;3812;50.006;8.230;2022-12-29T12:02:31;1.30;;;0.90;;
7541;SDS011;3812;50.006;8.230;2022-12-29T12:05:09;1.37;;;1.03;;
7541;SDS011;3812;50.006;8.230;2022-12-29T12:07:45;5.37;;;1.63;;
7541;SDS011;3812;50.006;8.230;2022-12-29T12:10:17;1.93;;;1.17;;
7541;SDS011;3812;50.006;8.230;2022-12-29T12:12:53;3.60;;;1.13;;
7541;SDS011;3812;50.006;8.230;2022-12-29T12:15:27;1.70;;;1.00;;
7541;SDS011;3812;50.006;8.230;2022-12-29T12:18:00;3.80;;;1.50;;
7541;SDS011;3812;50.006;8.230;2022-12-29T12:20:32;1.87;;;1.13;;
7541;SDS011;3812;50.006;8.230;2022-12-29T12:23:06;1.77;;;1.17;;
7541;SDS011;3812;50.006;8.230;2022-12-29T12:25:46;1.80;;;1.20;;
7541;SDS011;3812;50.006;8.230;2022-12-29T12:28:21;2.13;;;1.07;;
7541;SDS011;3812;50.006;8.230;2022-12-29T12:30:55;0.97;;;0.97;;
7541;SDS011;3812;50.006;8.230;2022-12-29T12:33:26;1.37;;;1.00;;
7541;SDS011;3812;50.006;8.230;2022-12-29T12:36:02;2.73;;;0.87;;
7541;SDS011;3812;50.006;8.230;2022-12-29T12:38:46;1.73;;;1.03;;
7541;SDS011;3812;50.006;8.230;2022-12-29T12:41:20;1.50;;;1.17;;
7541;SDS011;3812;50.006;8.230;2022-12-29T12:44:00;2.10;;;1.27;;
7541;SDS011;3812;50.006;8.230;2022-12-29T12:49:36;1.73;;;1.27;;
7541;SDS011;3812;50.006;8.230;2022-12-29T12:52:24;1.23;;;0.90;;
7541;SDS011;3812;50.006;8.230;2022-12-29T12:55:06;2.83;;;1.40;;
7541;SDS011;3812;50.006;8.230;2022-12-29T12:57:47;2.97;;;1.20;;
7541;SDS011;3812;50.006;8.230;2022-12-29T13:00:20;4.10;;;1.20;;
7541;SDS011;3812;50.006;8.230;2022-12-29T13:02:56;2.73;;;1.30;;
7541;SDS011;3812;50.006;8.230;2022-12-29T13:05:35;1.30;;;1.10;;
7541;SDS011;3812;50.006;8.230;2022-12-29T13:08:19;1.90;;;1.17;;
7541;SDS011;3812;50.006;8.230;2022-12-29T13:10:58;1.77;;;1.50;;
7541;SDS011;3812;50.006;8.230;2022-12-29T13:16:39;3.50;;;1.20;;
7541;SDS011;3812;50.006;8.230;2022-12-29T13:19:14;1.40;;;1.20;;
7541;SDS011;3812;50.006;8.230;2022-12-29T13:21:53;2.33;;;1.27;;
7541;SDS011;3812;50.006;8.230;2022-12-29T13:24:25;2.83;;;1.37;;
7541;SDS011;3812;50.006;8.230;2022-12-29T13:26:59;2.13;;;1.27;;
7541;SDS011;3812;50.006;8.230;2022-12-29T13:29:32;3.10;;;1.20;;
7541;SDS011;3812;50.006;8.230;2022-12-29T13:32:09;2.67;;;1.47;;
7541;SDS011;3812;50.006;8.230;2022-12-29T13:34:51;2.87;;;1.17;;
7541;SDS011;3812;50.006;8.230;2022-12-29T13:37:26;2.73;;;1.40;;
7541;SDS011;3812;50.006;8.230;2022-12-29T13:39:56;3.00;;;1.30;;
7541;SDS011;3812;50.006;8.230;2022-12-29T13:42:27;2.03;;;1.40;;
7541;SDS011;3812;50.006;8.230;2022-12-29T13:44:57;3.60;;;1.50;;
7541;SDS011;3812;50.006;8.230;2022-12-29T13:47:29;3.47;;;1.40;;
7541;SDS011;3812;50.006;8.230;2022-12-29T13:50:01;3.63;;;1.33;;
7541;SDS011;3812;50.006;8.230;2022-12-29T13:52:32;3.80;;;1.37;;
7541;SDS011;3812;50.006;8.230;2022-12-29T13:55:07;3.03;;;1.40;;
7541;SDS011;3812;50.006;8.230;2022-12-29T13:57:51;2.33;;;1.10;;
7541;SDS011;3812;50.006;8.230;2022-12-29T14:00:25;3.10;;;1.20;;
7541;SDS011;3812;50.006;8.230;2022-12-29T14:03:10;3.90;;;1.60;;
7541;SDS011;3812;50.006;8.230;2022-12-29T14:06:02;3.43;;;1.40;;
7541;SDS011;3812;50.006;8.230;2022-12-29T14:08:37;2.30;;;1.40;;
7541;SDS011;3812;50.006;8.230;2022-12-29T14:11:05;1.53;;;1.30;;
7541;SDS011;3812;50.006;8.230;2022-12-29T14:13:37;3.37;;;1.40;;
7541;SDS011;3812;50.006;8.230;2022-12-29T14:16:06;3.30;;;1.63;;
7541;SDS011;3812;50.006;8.230;2022-12-29T14:18:42;13.57;;;2.23;;
7541;SDS011;3812;50.006;8.230;2022-12-29T14:21:11;3.63;;;1.50;;
7541;SDS011;3812;50.006;8.230;2022-12-29T14:23:47;2.90;;;1.53;;
7541;SDS011;3812;50.006;8.230;2022-12-29T14:26:16;1.93;;;1.60;;
7541;SDS011;3812;50.006;8.230;2022-12-29T14:29:15;2.63;;;1.30;;
7541;SDS011;3812;50.006;8.230;2022-12-29T14:31:43;3.10;;;1.50;;
7541;SDS011;3812;50.006;8.230;2022-12-29T14:34:26;3.20;;;1.43;;
7541;SDS011;3812;50.006;8.230;2022-12-29T14:36:55;1.80;;;1.40;;
7541;SDS011;3812;50.006;8.230;2022-12-29T14:39:27;4.70;;;1.60;;
7541;SDS011;3812;50.006;8.230;2022-12-29T14:41:59;4.47;;;1.33;;
7541;SDS011;3812;50.006;8.230;2022-12-29T14:44:26;3.07;;;1.40;;
7541;SDS011;3812;50.006;8.230;2022-12-29T14:46:57;2.83;;;1.30;;
7541;SDS011;3812;50.006;8.230;2022-12-29T14:49:30;3.33;;;1.30;;
7541;SDS011;3812;50.006;8.230;2022-12-29T14:52:04;3.87;;;1.10;;
7541;SDS011;3812;50.006;8.230;2022-12-29T14:54:34;2.17;;;1.30;;
7541;SDS011;3812;50.006;8.230;2022-12-29T14:57:13;2.63;;;1.53;;
7541;SDS011;3812;50.006;8.230;2022-12-29T14:59:46;4.63;;;1.60;;
7541;SDS011;3812;50.006;8.230;2022-12-29T15:02:19;3.50;;;1.30;;
7541;SDS011;3812;50.006;8.230;2022-12-29T15:04:50;6.03;;;1.30;;
7541;SDS011;3812;50.006;8.230;2022-12-29T15:07:19;3.57;;;1.40;;
7541;SDS011;3812;50.006;8.230;2022-12-29T15:09:47;7.57;;;1.63;;
7541;SDS011;3812;50.006;8.230;2022-12-29T15:12:23;5.17;;;1.63;;
7541;SDS011;3812;50.006;8.230;2022-12-29T15:15:00;2.80;;;1.47;;
7541;SDS011;3812;50.006;8.230;2022-12-29T15:17:28;2.73;;;1.50;;
7541;SDS011;3812;50.006;8.230;2022-12-29T15:19:58;2.80;;;1.40;;
7541;SDS011;3812;50.006;8.230;2022-12-29T15:22:26;6.50;;;1.53;;
7541;SDS011;3812;50.006;8.230;2022-12-29T15:24:54;5.67;;;1.50;;
7541;SDS011;3812;50.006;8.230;2022-12-29T15:27:23;5.30;;;1.67;;
7541;SDS011;3812;50.006;8.230;2022-12-29T15:29:55;5.87;;;1.63;;
7541;SDS011;3812;50.006;8.230;2022-12-29T15:32:24;4.90;;;1.30;;
7541;SDS011;3812;50.006;8.230;2022-12-29T15:34:53;4.37;;;1.60;;
7541;SDS011;3812;50.006;8.230;2022-12-29T15:37:25;4.40;;;1.50;;
7541;SDS011;3812;50.006;8.230;2022-12-29T15:39:53;3.90;;;1.70;;
7541;SDS011;3812;50.006;8.230;2022-12-29T15:45:16;8.03;;;1.63;;
7541;SDS011;3812;50.006;8.230;2022-12-29T15:47:43;2.87;;;1.57;;
7541;SDS011;3812;50.006;8.230;2022-12-29T15:50:15;3.87;;;1.23;;
7541;SDS011;3812;50.006;8.230;2022-12-29T15:52:50;2.43;;;1.67;;
7541;SDS011;3812;50.006;8.230;2022-12-29T15:55:18;3.13;;;1.53;;
7541;SDS011;3812;50.006;8.230;2022-12-29T15:57:49;3.63;;;1.50;;
7541;SDS011;3812;50.006;8.230;2022-12-29T16:00:23;4.80;;;1.40;;